createdAt,value
2019-04-21T00:00:39.716Z,50.60
2019-04-21T00:03:20.612Z,50.20
2019-04-21T00:06:03.314Z,50.90
2019-04-21T00:11:04.329Z,50.90
2019-04-21T00:13:28.080Z,51.00
2019-04-21T00:15:53.200Z,51.00
2019-04-21T00:18:40.770Z,50.50
2019-04-21T00:21:16.215Z,50.60
2019-04-21T00:23:53.772Z,51.10
2019-04-21T00:26:24.029Z,50.80
2019-04-21T00:29:03.715Z,51.00
2019-04-21T00:31:27.285Z,50.70
2019-04-21T00:34:00.388Z,50.80
2019-04-21T00:36:45.398Z,51.00
2019-04-21T00:39:31.694Z,51.20
2019-04-21T00:41:56.244Z,52.30
2019-04-21T00:44:16.439Z,52.00
2019-04-21T00:46:47.213Z,51.90
2019-04-21T00:49:24.768Z,52.00
2019-04-21T00:52:43.673Z,51.90
2019-04-21T00:55:10.984Z,52.30
2019-04-21T00:57:32.612Z,52.60
2019-04-21T01:00:00.778Z,52.50
2019-04-21T01:02:36.386Z,52.70
2019-04-21T01:05:04.845Z,53.00
2019-04-21T01:07:31.531Z,53.10
2019-04-21T01:09:52.610Z,54.20
2019-04-21T01:12:40.219Z,54.30
2019-04-21T01:15:30.654Z,54.70
2019-04-21T01:18:01.098Z,54.00
2019-04-21T01:20:15.988Z,54.60
2019-04-21T01:22:36.575Z,53.60
2019-04-21T01:25:15.911Z,54.10
2019-04-21T01:27:53.860Z,54.90
2019-04-21T01:30:29.703Z,54.50
2019-04-21T01:33:00.014Z,55.00
2019-04-21T01:35:34.396Z,54.70
2019-04-21T01:38:01.937Z,55.10
2019-04-21T01:40:29.712Z,56.30
2019-04-21T01:43:24.902Z,55.50
2019-04-21T01:45:53.599Z,55.90
2019-04-21T01:48:22.899Z,55.60
2019-04-21T01:50:55.591Z,55.80
2019-04-21T01:53:56.748Z,55.50
2019-04-21T01:56:40.154Z,57.00
2019-04-21T01:59:01.304Z,56.30
2019-04-21T02:01:40.568Z,55.50
2019-04-21T02:04:20.787Z,55.50
2019-04-21T02:06:45.564Z,55.60
2019-04-21T02:09:16.354Z,56.20
2019-04-21T02:11:50.485Z,56.10
2019-04-21T02:14:23.772Z,56.30
2019-04-21T02:16:54.157Z,55.90
2019-04-21T02:19:18.252Z,55.40
2019-04-21T02:21:46.194Z,55.90
2019-04-21T02:24:30.141Z,55.70
2019-04-21T02:26:56.148Z,55.90
2019-04-21T02:29:26.690Z,55.60
2019-04-21T02:34:44.817Z,55.80
2019-04-21T02:42:31.984Z,56.50
2019-04-21T02:47:24.198Z,57.20
2019-04-21T02:49:57.505Z,56.80
2019-04-21T02:52:27.437Z,56.50
2019-04-21T02:55:03.837Z,56.40
2019-04-21T02:57:18.553Z,56.30
2019-04-21T03:00:06.445Z,56.40
2019-04-21T03:05:50.857Z,56.80
2019-04-21T03:08:32.183Z,56.20
2019-04-21T03:11:04.916Z,57.00
2019-04-21T03:13:29.746Z,56.60
2019-04-21T03:16:04.989Z,56.20
2019-04-21T03:23:30.129Z,56.80
2019-04-21T03:26:03.366Z,56.10
2019-04-21T03:28:56.667Z,56.20
2019-04-21T03:31:36.669Z,57.00
2019-04-21T03:38:47.325Z,56.50
2019-04-21T03:44:14.582Z,57.90
2019-04-21T03:46:47.967Z,56.70
2019-04-21T03:49:19.212Z,56.20
2019-04-21T03:51:50.566Z,57.20
2019-04-21T03:54:16.265Z,58.60
2019-04-21T03:59:16.084Z,57.90
2019-04-21T04:02:23.050Z,57.80
2019-04-21T04:05:08.833Z,58.20
2019-04-21T04:12:52.258Z,57.70
2019-04-21T04:15:36.760Z,57.60
2019-04-21T04:17:46.846Z,58.70
2019-04-21T04:20:28.138Z,58.40
2019-04-21T04:22:56.251Z,57.80
2019-04-21T04:25:37.360Z,58.40
2019-04-21T04:32:57.477Z,58.30
2019-04-21T04:35:40.484Z,57.80
2019-04-21T04:38:00.819Z,58.80
2019-04-21T04:40:36.188Z,58.30
2019-04-21T04:43:17.542Z,58.70
2019-04-21T04:45:55.844Z,59.30
2019-04-21T04:53:25.847Z,58.50
2019-04-21T04:58:18.752Z,59.80
2019-04-21T05:03:26.335Z,59.80
2019-04-21T05:06:37.475Z,58.80
2019-04-21T05:11:32.565Z,59.60
2019-04-21T05:13:55.391Z,59.30
2019-04-21T05:16:36.619Z,58.90
2019-04-21T05:19:03.078Z,60.10
2019-04-21T05:21:30.310Z,59.80
2019-04-21T05:23:50.100Z,59.90
2019-04-21T05:26:09.981Z,60.00
2019-04-21T05:28:42.069Z,59.90
2019-04-21T05:31:45.046Z,59.90
2019-04-21T05:34:09.561Z,60.10
2019-04-21T05:36:52.089Z,60.00
2019-04-21T05:39:36.162Z,59.20
2019-04-21T05:41:58.616Z,60.70
2019-04-21T05:44:51.137Z,60.10
2019-04-21T05:47:20.746Z,60.40
2019-04-21T05:49:50.010Z,60.20
2019-04-21T05:52:22.506Z,59.00
2019-04-21T05:57:29.076Z,59.90
2019-04-21T06:00:00.932Z,60.30
2019-04-21T06:02:29.029Z,59.40
2019-04-21T06:05:14.493Z,59.80
2019-04-21T06:07:34.591Z,61.10
2019-04-21T06:10:10.756Z,60.00
2019-04-21T06:12:40.656Z,60.20
2019-04-21T06:15:12.254Z,60.00
2019-04-21T06:20:05.625Z,60.10
2019-04-21T06:22:38.661Z,60.00
2019-04-21T06:27:44.358Z,59.40
2019-04-21T06:30:10.384Z,59.60
2019-04-21T06:32:56.792Z,60.40
2019-04-21T06:36:21.593Z,59.80
2019-04-21T06:38:56.539Z,59.00
2019-04-21T06:41:25.005Z,58.90
2019-04-21T06:46:21.136Z,58.80
2019-04-21T06:48:53.668Z,59.40
2019-04-21T06:51:23.938Z,59.30
2019-04-21T06:53:59.378Z,58.50
2019-04-21T06:56:34.926Z,58.60
2019-04-21T06:58:57.926Z,58.60
2019-04-21T07:01:32.796Z,58.60
2019-04-21T07:04:09.835Z,58.20
2019-04-21T07:06:36.283Z,59.20
2019-04-21T07:09:10.248Z,57.70
2019-04-21T07:11:25.648Z,58.00
2019-04-21T07:14:19.814Z,57.80
2019-04-21T07:16:38.698Z,57.60
2019-04-21T07:19:17.547Z,57.30
2019-04-21T07:21:37.038Z,57.10
2019-04-21T07:24:07.733Z,57.20
2019-04-21T07:26:36.645Z,57.10
2019-04-21T07:29:07.844Z,57.00
2019-04-21T07:31:47.800Z,56.90
2019-04-21T07:34:17.414Z,56.50
2019-04-21T07:36:52.551Z,56.50
2019-04-21T07:39:10.341Z,56.20
2019-04-21T07:41:38.594Z,56.20
2019-04-21T07:44:04.366Z,56.20
2019-04-21T07:46:37.187Z,55.70
2019-04-21T07:49:19.154Z,55.70
2019-04-21T07:52:05.641Z,55.40
2019-04-21T07:54:41.465Z,55.60
2019-04-21T07:56:52.381Z,55.60
2019-04-21T07:59:52.517Z,55.30
2019-04-21T08:02:01.158Z,55.20
2019-04-21T08:07:10.579Z,54.60
2019-04-21T08:09:42.533Z,54.60
2019-04-21T08:12:03.992Z,54.20
2019-04-21T08:14:59.611Z,54.40
2019-04-21T08:17:09.795Z,54.50
2019-04-21T08:19:35.433Z,53.70
2019-04-21T08:24:42.128Z,53.00
2019-04-21T08:27:18.978Z,53.50
2019-04-21T08:29:46.227Z,54.20
2019-04-21T08:32:19.909Z,53.60
2019-04-21T08:35:02.792Z,53.30
2019-04-21T08:37:18.547Z,53.00
2019-04-21T08:39:59.695Z,52.90
2019-04-21T08:42:21.957Z,52.20
2019-04-21T08:44:52.417Z,51.10
2019-04-21T08:47:25.728Z,51.00
2019-04-21T08:49:55.415Z,51.70
2019-04-21T08:55:05.376Z,50.00
2019-04-21T08:57:41.892Z,50.40
2019-04-21T09:00:51.382Z,50.10
2019-04-21T09:03:36.045Z,50.00
2019-04-21T09:06:09.317Z,50.50
2019-04-21T09:08:39.777Z,49.40
2019-04-21T09:11:06.949Z,47.80
2019-04-21T09:13:36.743Z,49.00
2019-04-21T09:16:06.792Z,49.10
2019-04-21T09:18:33.765Z,49.00
2019-04-21T09:21:13.633Z,48.40
2019-04-21T09:23:38.251Z,48.30
2019-04-21T09:26:14.112Z,47.80
2019-04-21T09:28:39.472Z,45.80
2019-04-21T09:30:58.434Z,48.20
2019-04-21T09:33:34.551Z,47.40
2019-04-21T09:36:02.619Z,47.40
2019-04-21T09:38:36.529Z,46.90
2019-04-21T09:40:59.785Z,46.80
2019-04-21T09:43:36.489Z,47.30
2019-04-21T09:45:59.969Z,45.60
2019-04-21T09:48:42.632Z,46.00
2019-04-21T09:51:00.181Z,45.80
2019-04-21T09:53:34.227Z,45.20
2019-04-21T09:56:04.904Z,45.20
2019-04-21T09:58:38.669Z,44.80
2019-04-21T10:01:15.658Z,44.90
2019-04-21T10:03:43.411Z,44.20
2019-04-21T10:06:08.490Z,43.50
2019-04-21T10:08:38.625Z,45.50
2019-04-21T10:11:08.033Z,44.70
2019-04-21T10:13:37.416Z,43.90
2019-04-21T10:16:32.182Z,43.00
2019-04-21T10:19:02.561Z,44.60
2019-04-21T10:21:31.981Z,43.10
2019-04-21T10:24:02.044Z,42.60
2019-04-21T10:26:31.611Z,42.50
2019-04-21T10:29:08.626Z,42.00
2019-04-21T10:31:32.472Z,41.90
2019-04-21T10:34:03.140Z,41.80
2019-04-21T10:36:33.221Z,42.40
2019-04-21T10:39:04.073Z,41.30
2019-04-21T10:41:33.705Z,41.60
2019-04-21T10:44:03.181Z,40.80
2019-04-21T10:46:32.997Z,41.60
2019-04-21T10:49:02.578Z,42.30
2019-04-21T10:51:32.884Z,40.20
2019-04-21T10:54:02.281Z,40.40
2019-04-21T10:56:37.977Z,39.80
2019-04-21T10:59:02.540Z,40.40
2019-04-21T11:01:31.909Z,39.40
2019-04-21T11:04:20.070Z,41.40
2019-04-21T11:06:44.286Z,38.70
2019-04-21T11:09:15.738Z,39.90
2019-04-21T11:11:48.132Z,39.40
2019-04-21T11:14:17.566Z,38.30
2019-04-21T11:16:49.047Z,39.80
2019-04-21T11:19:18.225Z,40.60
2019-04-21T11:21:47.481Z,39.50
2019-04-21T11:24:18.101Z,39.20
2019-04-21T11:26:47.780Z,39.10
2019-04-21T11:29:17.167Z,39.70
2019-04-21T11:31:47.298Z,38.10
2019-04-21T11:34:16.686Z,39.40
2019-04-21T11:36:46.017Z,39.50
2019-04-21T11:39:35.248Z,37.80
2019-04-21T11:42:23.730Z,38.70
2019-04-21T11:44:55.353Z,38.60
2019-04-21T11:47:30.334Z,39.60
2019-04-21T11:50:01.039Z,39.20
2019-04-21T11:52:31.027Z,37.30
2019-04-21T11:55:02.774Z,38.10
2019-04-21T11:57:36.435Z,38.20
2019-04-21T12:00:03.912Z,39.10
2019-04-21T12:02:33.405Z,38.80
2019-04-21T12:05:03.608Z,39.00
2019-04-21T12:07:33.470Z,36.80
2019-04-21T12:10:03.763Z,37.80
2019-04-21T12:12:33.121Z,38.80
2019-04-21T12:15:03.903Z,39.20
2019-04-21T12:17:34.149Z,37.80
2019-04-21T12:20:03.690Z,39.60
2019-04-21T12:22:34.118Z,39.40
2019-04-21T12:25:07.139Z,40.10
2019-04-21T12:27:36.474Z,39.50
2019-04-21T12:30:06.442Z,39.70
2019-04-21T12:33:07.736Z,38.60
2019-04-21T12:35:57.714Z,39.40
2019-04-21T12:38:35.368Z,38.70
2019-04-21T12:40:58.220Z,39.10
2019-04-21T12:43:28.553Z,40.00
2019-04-21T12:45:58.093Z,38.70
2019-04-21T12:48:28.173Z,39.40
2019-04-21T12:51:03.772Z,39.00
2019-04-21T12:53:36.226Z,40.30
2019-04-21T12:56:07.364Z,40.10
2019-04-21T12:58:37.399Z,37.50
2019-04-21T13:01:10.949Z,38.40
2019-04-21T13:03:41.684Z,38.70
2019-04-21T13:06:11.778Z,38.10
2019-04-21T13:08:49.862Z,40.10
2019-04-21T13:11:13.173Z,39.40
2019-04-21T13:13:43.803Z,38.30
2019-04-21T13:16:13.689Z,39.90
2019-04-21T13:18:43.238Z,38.70
2019-04-21T13:21:13.938Z,39.10
2019-04-21T13:23:43.414Z,39.00
2019-04-21T13:26:13.175Z,38.50
2019-04-21T13:28:42.665Z,39.20
2019-04-21T13:31:12.128Z,37.90
2019-04-21T13:33:42.031Z,38.50
2019-04-21T13:36:11.835Z,38.70
2019-04-21T13:39:33.434Z,38.90
2019-04-21T13:41:42.811Z,39.00
2019-04-21T13:44:13.334Z,38.20
2019-04-21T13:46:43.181Z,37.70
2019-04-21T13:49:13.703Z,37.00
2019-04-21T13:51:43.967Z,38.30
2019-04-21T13:54:13.935Z,38.00
2019-04-21T13:57:02.810Z,37.30
2019-04-21T13:59:32.158Z,38.30
2019-04-21T14:02:02.684Z,38.70
2019-04-21T14:04:33.571Z,37.70
2019-04-21T14:07:03.372Z,37.50
2019-04-21T14:09:40.294Z,37.00
2019-04-21T14:12:03.928Z,36.80
2019-04-21T14:14:34.533Z,36.50
2019-04-21T14:17:05.354Z,36.80
2019-04-21T14:19:35.165Z,37.40
2019-04-21T14:22:05.637Z,36.20
2019-04-21T14:24:35.422Z,35.90
2019-04-21T14:27:05.897Z,36.40
2019-04-21T14:29:35.483Z,37.40
2019-04-21T14:32:06.371Z,37.60
2019-04-21T14:34:35.712Z,37.00
2019-04-21T14:37:04.965Z,37.70
2019-04-21T14:39:38.184Z,36.70
2019-04-21T14:42:06.437Z,36.70
2019-04-21T14:44:36.531Z,37.20
2019-04-21T14:47:25.105Z,36.00
2019-04-21T14:50:24.240Z,36.00
2019-04-21T14:53:27.961Z,37.00
2019-04-21T14:55:57.581Z,37.30
2019-04-21T14:58:27.398Z,35.40
2019-04-21T15:01:00.385Z,36.00
2019-04-21T15:03:29.958Z,36.10
2019-04-21T15:05:59.451Z,36.70
2019-04-21T15:08:28.975Z,37.30
2019-04-21T15:10:58.880Z,37.40
2019-04-21T15:13:28.352Z,37.00
2019-04-21T15:15:57.586Z,36.50
2019-04-21T15:18:26.861Z,35.90
2019-04-21T15:20:57.392Z,36.50
2019-04-21T15:23:28.677Z,36.60
2019-04-21T15:25:58.091Z,35.00
2019-04-21T15:28:30.698Z,37.30
2019-04-21T15:30:58.660Z,36.60
2019-04-21T15:33:28.697Z,36.90
2019-04-21T15:35:58.083Z,37.20
2019-04-21T15:38:27.716Z,36.80
2019-04-21T15:41:01.312Z,37.30
2019-04-21T15:43:28.622Z,38.00
2019-04-21T15:45:58.197Z,38.10
2019-04-21T15:48:28.804Z,37.90
2019-04-21T15:50:59.129Z,37.60
2019-04-21T15:53:30.310Z,37.40
2019-04-21T15:56:10.888Z,37.60
2019-04-21T15:58:50.564Z,37.20
2019-04-21T16:01:40.800Z,37.90
2019-04-21T16:04:10.665Z,37.40
2019-04-21T16:06:41.552Z,37.00
2019-04-21T16:09:15.058Z,37.40
2019-04-21T16:11:42.202Z,37.40
2019-04-21T16:14:11.534Z,37.70
2019-04-21T16:16:41.194Z,37.20
2019-04-21T16:19:11.913Z,37.40
2019-04-21T16:21:44.476Z,38.20
2019-04-21T16:24:14.080Z,38.40
2019-04-21T16:26:44.590Z,38.60
2019-04-21T16:29:15.272Z,38.90
2019-04-21T16:31:44.753Z,38.00
2019-04-21T16:34:14.012Z,38.20
2019-04-21T16:36:43.589Z,38.90
2019-04-21T16:39:13.536Z,38.60
2019-04-21T16:41:44.411Z,38.90
2019-04-21T16:44:13.991Z,38.50
2019-04-21T16:46:43.408Z,38.70
2019-04-21T16:49:13.766Z,38.60
2019-04-21T16:51:47.130Z,38.80
2019-04-21T16:54:24.065Z,38.70
2019-04-21T16:57:10.045Z,39.20
2019-04-21T16:59:42.649Z,39.40
2019-04-21T17:02:12.382Z,39.10
2019-04-21T17:04:42.490Z,39.20
2019-04-21T17:07:13.454Z,39.20
2019-04-21T17:09:44.335Z,39.50
2019-04-21T17:12:14.644Z,39.60
2019-04-21T17:14:58.216Z,39.40
2019-04-21T17:17:37.011Z,39.60
2019-04-21T17:19:49.057Z,39.20
2019-04-21T17:22:17.680Z,39.00
2019-04-21T17:24:48.417Z,38.90
2019-04-21T17:27:17.899Z,38.60
2019-04-21T17:29:48.508Z,38.80
2019-04-21T17:32:18.354Z,39.40
2019-04-21T17:34:47.966Z,40.00
2019-04-21T17:37:20.140Z,40.60
2019-04-21T17:39:49.195Z,40.80
2019-04-21T17:42:27.899Z,41.60
2019-04-21T17:44:50.946Z,40.90
2019-04-21T17:47:32.772Z,40.60
2019-04-21T17:50:13.662Z,40.70
2019-04-21T17:52:57.353Z,40.50
2019-04-21T17:55:29.410Z,40.60
2019-04-21T17:58:12.066Z,40.60
2019-04-21T18:03:30.632Z,40.50
2019-04-21T18:05:50.530Z,40.50
2019-04-21T18:08:38.286Z,40.50
2019-04-21T18:10:49.440Z,40.60
2019-04-21T18:13:14.578Z,40.80
2019-04-21T18:15:56.733Z,40.80
2019-04-21T18:18:13.049Z,41.10
2019-04-21T18:20:45.743Z,41.20
2019-04-21T18:23:47.247Z,41.20
2019-04-21T18:26:19.255Z,41.30
2019-04-21T18:28:38.776Z,41.40
2019-04-21T18:31:14.368Z,41.40
2019-04-21T18:34:11.057Z,41.60
2019-04-21T18:36:58.887Z,41.70
2019-04-21T18:39:46.333Z,41.50
2019-04-21T18:42:40.774Z,41.70
2019-04-21T18:48:02.716Z,42.20
2019-04-21T18:50:45.988Z,41.60
2019-04-21T18:53:30.109Z,41.50
2019-04-21T18:55:48.170Z,41.50
2019-04-21T18:58:16.175Z,41.60
2019-04-21T19:00:46.004Z,41.30
2019-04-21T19:03:24.754Z,41.60
2019-04-21T19:05:53.693Z,41.50
2019-04-21T19:08:30.678Z,41.60
2019-04-21T19:11:08.473Z,41.70
2019-04-21T19:14:11.073Z,42.00
2019-04-21T19:16:39.942Z,42.00
2019-04-21T19:19:10.760Z,42.20
2019-04-21T19:21:24.539Z,42.10
2019-04-21T19:24:15.646Z,42.40
2019-04-21T19:26:37.994Z,42.40
2019-04-21T19:29:03.540Z,42.80
2019-04-21T19:31:38.309Z,43.40
2019-04-21T19:33:55.676Z,43.40
2019-04-21T19:36:17.376Z,43.30
2019-04-21T19:38:58.611Z,43.40
2019-04-21T19:41:32.393Z,43.50
2019-04-21T19:44:07.018Z,43.20
2019-04-21T19:46:34.474Z,43.40
2019-04-21T19:49:16.655Z,43.10
2019-04-21T19:51:35.326Z,43.30
2019-04-21T19:54:01.489Z,43.00
2019-04-21T19:56:24.105Z,43.00
2019-04-21T19:58:54.922Z,43.10
2019-04-21T20:01:25.495Z,43.00
2019-04-21T20:03:59.097Z,43.10
2019-04-21T20:06:44.117Z,43.20
2019-04-21T20:09:17.766Z,43.10
2019-04-21T20:11:42.003Z,43.30
2019-04-21T20:16:45.315Z,43.30
2019-04-21T20:19:06.045Z,43.40
2019-04-21T20:21:33.036Z,43.20
2019-04-21T20:24:08.200Z,43.20
2019-04-21T20:26:41.303Z,43.30
2019-04-21T20:29:20.771Z,43.40
2019-04-21T20:31:53.057Z,43.30
2019-04-21T20:34:28.287Z,43.50
2019-04-21T20:36:59.743Z,43.60
2019-04-21T20:39:13.863Z,43.80
2019-04-21T20:41:54.628Z,44.10
2019-04-21T20:44:36.303Z,44.30
2019-04-21T20:46:55.500Z,44.20
2019-04-21T20:49:23.141Z,44.30
2019-04-21T20:52:03.618Z,43.80
2019-04-21T20:54:29.667Z,44.30
2019-04-21T20:57:07.784Z,44.40
2019-04-21T20:59:29.319Z,44.70
2019-04-21T21:02:05.595Z,44.60
2019-04-21T21:04:29.567Z,44.50
2019-04-21T21:07:16.280Z,45.20
2019-04-21T21:09:33.829Z,44.80
2019-04-21T21:12:25.824Z,45.00
2019-04-21T21:14:36.392Z,45.20
2019-04-21T21:17:27.861Z,45.30
2019-04-21T21:19:47.315Z,45.00
2019-04-21T21:22:09.857Z,46.40
2019-04-21T21:24:49.687Z,45.20
2019-04-21T21:27:14.104Z,45.40
2019-04-21T21:29:51.355Z,45.60
2019-04-21T21:32:20.645Z,45.60
2019-04-21T21:34:53.626Z,46.40
2019-04-21T21:37:36.312Z,45.60
2019-04-21T21:39:57.187Z,45.60
2019-04-21T21:42:08.062Z,45.70
2019-04-21T21:44:40.781Z,45.60
2019-04-21T21:47:22.659Z,46.30
2019-04-21T21:49:52.833Z,46.30
2019-04-21T21:52:22.447Z,46.10
2019-04-21T21:54:41.629Z,46.80
2019-04-21T21:57:12.335Z,46.60
2019-04-21T21:59:42.232Z,46.40
2019-04-21T22:02:16.648Z,46.60
2019-04-21T22:04:50.914Z,46.40
2019-04-21T22:07:17.133Z,47.10
2019-04-21T22:09:46.367Z,46.70
2019-04-21T22:12:16.059Z,46.70
2019-04-21T22:14:50.000Z,46.60
2019-04-21T22:17:31.559Z,47.30
2019-04-21T22:20:08.203Z,47.30
2019-04-21T22:22:31.524Z,47.50
2019-04-21T22:24:59.355Z,47.90
2019-04-21T22:27:21.289Z,48.20
2019-04-21T22:29:55.013Z,48.10
2019-04-21T22:32:27.489Z,47.70
2019-04-21T22:34:58.364Z,47.90
2019-04-21T22:37:38.043Z,48.10
2019-04-21T22:40:08.586Z,48.20
2019-04-21T22:42:29.624Z,48.00
2019-04-21T22:45:02.964Z,48.20
2019-04-21T22:47:34.538Z,48.20
2019-04-21T22:50:04.424Z,48.30
2019-04-21T22:52:35.552Z,48.20
2019-04-21T22:55:11.931Z,48.50
2019-04-21T22:57:42.893Z,49.10
2019-04-21T23:00:11.704Z,49.10
2019-04-21T23:02:41.069Z,49.20
2019-04-21T23:05:11.394Z,49.20
2019-04-21T23:07:49.500Z,49.00
2019-04-21T23:10:13.481Z,49.20
2019-04-21T23:12:43.986Z,49.30
2019-04-21T23:15:18.963Z,49.20
2019-04-21T23:18:04.777Z,49.40
2019-04-21T23:20:40.213Z,49.80
2019-04-21T23:23:21.087Z,50.10
2019-04-21T23:25:36.551Z,50.50
2019-04-21T23:28:05.999Z,50.40
2019-04-21T23:30:45.815Z,50.50
2019-04-21T23:32:59.644Z,50.60
2019-04-21T23:35:32.221Z,50.30
2019-04-21T23:37:58.595Z,50.40
2019-04-21T23:40:27.491Z,50.20
2019-04-21T23:43:00.057Z,50.60
2019-04-21T23:45:35.838Z,50.30
2019-04-21T23:48:14.643Z,50.60
2019-04-21T23:50:40.724Z,50.60
2019-04-21T23:53:01.602Z,51.00
2019-04-21T23:55:31.534Z,50.80
2019-04-21T23:58:09.429Z,51.00
